sensor_id;sensor_type;location;lat;lon;timestamp;P1;durP1;ratioP1;P2;durP2;ratioP2
69956;SDS011;57283;54.816;9.482;2022-10-14T03:01:49;11.35;;;5.28;;
69956;SDS011;57283;54.816;9.482;2022-10-14T03:04:17;14.68;;;6.07;;
69956;SDS011;57283;54.816;9.482;2022-10-14T03:06:44;15.43;;;5.47;;
69956;SDS011;57283;54.816;9.482;2022-10-14T03:09:12;11.82;;;5.45;;
69956;SDS011;57283;54.816;9.482;2022-10-14T03:11:39;16.13;;;5.88;;
69956;SDS011;57283;54.816;9.482;2022-10-14T03:14:07;13.45;;;4.88;;
69956;SDS011;57283;54.816;9.482;2022-10-14T03:16:34;12.95;;;5.57;;
69956;SDS011;57283;54.816;9.482;2022-10-14T03:19:03;14.50;;;6.33;;
69956;SDS011;57283;54.816;9.482;2022-10-14T03:21:31;13.60;;;5.88;;
69956;SDS011;57283;54.816;9.482;2022-10-14T03:23:58;11.70;;;5.28;;
69956;SDS011;57283;54.816;9.482;2022-10-14T03:26:27;13.45;;;5.60;;
69956;SDS011;57283;54.816;9.482;2022-10-14T03:28:54;12.30;;;5.15;;
69956;SDS011;57283;54.816;9.482;2022-10-14T03:31:22;11.03;;;5.23;;
69956;SDS011;57283;54.816;9.482;2022-10-14T03:33:49;13.82;;;4.97;;
69956;SDS011;57283;54.816;9.482;2022-10-14T03:36:18;12.05;;;5.20;;
69956;SDS011;57283;54.816;9.482;2022-10-14T03:38:46;12.18;;;5.20;;
69956;SDS011;57283;54.816;9.482;2022-10-14T03:41:13;11.88;;;5.07;;
69956;SDS011;57283;54.816;9.482;2022-10-14T03:43:41;13.37;;;5.20;;
69956;SDS011;57283;54.816;9.482;2022-10-14T03:46:08;12.48;;;5.07;;
69956;SDS011;57283;54.816;9.482;2022-10-14T03:48:36;10.52;;;4.97;;
69956;SDS011;57283;54.816;9.482;2022-10-14T03:51:03;13.38;;;5.05;;
69956;SDS011;57283;54.816;9.482;2022-10-14T03:53:32;13.95;;;4.85;;
69956;SDS011;57283;54.816;9.482;2022-10-14T03:56:00;11.43;;;4.60;;
69956;SDS011;57283;54.816;9.482;2022-10-14T03:58:27;13.82;;;4.90;;
69956;SDS011;57283;54.816;9.482;2022-10-14T04:00:55;11.80;;;4.70;;
69956;SDS011;57283;54.816;9.482;2022-10-14T04:03:22;13.15;;;4.47;;
69956;SDS011;57283;54.816;9.482;2022-10-14T04:05:50;11.07;;;4.70;;
69956;SDS011;57283;54.816;9.482;2022-10-14T04:08:17;12.27;;;4.50;;
69956;SDS011;57283;54.816;9.482;2022-10-14T04:10:46;13.10;;;4.45;;
69956;SDS011;57283;54.816;9.482;2022-10-14T04:13:17;11.20;;;4.53;;
69956;SDS011;57283;54.816;9.482;2022-10-14T04:15:44;10.10;;;5.22;;
69956;SDS011;57283;54.816;9.482;2022-10-14T04:18:12;11.32;;;4.78;;
69956;SDS011;57283;54.816;9.482;2022-10-14T04:20:40;10.93;;;4.47;;
69956;SDS011;57283;54.816;9.482;2022-10-14T04:23:07;10.65;;;4.95;;
69956;SDS011;57283;54.816;9.482;2022-10-14T04:25:36;12.10;;;5.20;;
69956;SDS011;57283;54.816;9.482;2022-10-14T04:28:05;11.77;;;4.95;;
69956;SDS011;57283;54.816;9.482;2022-10-14T04:30:32;15.20;;;5.25;;
69956;SDS011;57283;54.816;9.482;2022-10-14T04:33:00;11.90;;;4.97;;
69956;SDS011;57283;54.816;9.482;2022-10-14T04:35:27;14.05;;;4.78;;
69956;SDS011;57283;54.816;9.482;2022-10-14T04:37:55;12.27;;;5.20;;
69956;SDS011;57283;54.816;9.482;2022-10-14T04:40:22;12.07;;;4.47;;
69956;SDS011;57283;54.816;9.482;2022-10-14T04:42:53;12.32;;;4.85;;
69956;SDS011;57283;54.816;9.482;2022-10-14T04:45:22;11.50;;;4.83;;
69956;SDS011;57283;54.816;9.482;2022-10-14T04:47:50;14.43;;;5.20;;
69956;SDS011;57283;54.816;9.482;2022-10-14T04:50:18;12.48;;;5.28;;
69956;SDS011;57283;54.816;9.482;2022-10-14T04:52:45;13.18;;;5.28;;
69956;SDS011;57283;54.816;9.482;2022-10-14T04:55:13;11.13;;;5.43;;
69956;SDS011;57283;54.816;9.482;2022-10-14T04:57:41;13.77;;;5.63;;
69956;SDS011;57283;54.816;9.482;2022-10-14T05:00:10;9.93;;;4.68;;
69956;SDS011;57283;54.816;9.482;2022-10-14T05:02:39;12.95;;;4.78;;
69956;SDS011;57283;54.816;9.482;2022-10-14T05:05:07;11.75;;;4.97;;
69956;SDS011;57283;54.816;9.482;2022-10-14T05:07:35;11.25;;;5.10;;
69956;SDS011;57283;54.816;9.482;2022-10-14T05:10:03;12.13;;;4.93;;
69956;SDS011;57283;54.816;9.482;2022-10-14T05:12:31;11.65;;;4.95;;
69956;SDS011;57283;54.816;9.482;2022-10-14T05:14:58;10.82;;;5.00;;
69956;SDS011;57283;54.816;9.482;2022-10-14T05:17:26;12.02;;;4.93;;
69956;SDS011;57283;54.816;9.482;2022-10-14T05:19:54;12.75;;;4.53;;
69956;SDS011;57283;54.816;9.482;2022-10-14T05:22:22;12.00;;;5.20;;
69956;SDS011;57283;54.816;9.482;2022-10-14T05:24:50;12.38;;;4.72;;
69956;SDS011;57283;54.816;9.482;2022-10-14T05:27:17;12.82;;;5.30;;
69956;SDS011;57283;54.816;9.482;2022-10-14T05:29:45;11.32;;;4.88;;
69956;SDS011;57283;54.816;9.482;2022-10-14T05:32:14;10.65;;;4.47;;
69956;SDS011;57283;54.816;9.482;2022-10-14T05:34:41;12.10;;;4.67;;
69956;SDS011;57283;54.816;9.482;2022-10-14T05:37:10;10.77;;;5.03;;
69956;SDS011;57283;54.816;9.482;2022-10-14T05:39:37;10.27;;;4.80;;
69956;SDS011;57283;54.816;9.482;2022-10-14T05:42:05;10.85;;;4.93;;
69956;SDS011;57283;54.816;9.482;2022-10-14T05:44:32;11.50;;;4.82;;
69956;SDS011;57283;54.816;9.482;2022-10-14T05:47:00;11.53;;;4.83;;
69956;SDS011;57283;54.816;9.482;2022-10-14T05:49:27;12.63;;;5.03;;
69956;SDS011;57283;54.816;9.482;2022-10-14T05:51:55;13.10;;;5.20;;
69956;SDS011;57283;54.816;9.482;2022-10-14T05:54:24;10.48;;;5.07;;
69956;SDS011;57283;54.816;9.482;2022-10-14T05:56:51;14.07;;;5.70;;
69956;SDS011;57283;54.816;9.482;2022-10-14T05:59:19;12.67;;;5.90;;
69956;SDS011;57283;54.816;9.482;2022-10-14T06:01:47;13.18;;;6.22;;
69956;SDS011;57283;54.816;9.482;2022-10-14T06:04:15;13.80;;;6.70;;
69956;SDS011;57283;54.816;9.482;2022-10-14T06:06:43;14.77;;;6.35;;
69956;SDS011;57283;54.816;9.482;2022-10-14T06:09:11;15.80;;;6.97;;
69956;SDS011;57283;54.816;9.482;2022-10-14T06:11:40;14.30;;;6.67;;
69956;SDS011;57283;54.816;9.482;2022-10-14T06:14:07;18.15;;;7.43;;
69956;SDS011;57283;54.816;9.482;2022-10-14T06:16:35;18.20;;;7.88;;
69956;SDS011;57283;54.816;9.482;2022-10-14T06:19:02;24.98;;;7.90;;
69956;SDS011;57283;54.816;9.482;2022-10-14T06:21:30;23.17;;;7.03;;
69956;SDS011;57283;54.816;9.482;2022-10-14T06:23:58;17.10;;;7.57;;
69956;SDS011;57283;54.816;9.482;2022-10-14T06:26:25;23.15;;;7.35;;
69956;SDS011;57283;54.816;9.482;2022-10-14T06:28:54;15.65;;;7.28;;
69956;SDS011;57283;54.816;9.482;2022-10-14T06:31:22;20.98;;;7.95;;
69956;SDS011;57283;54.816;9.482;2022-10-14T06:33:55;17.73;;;8.18;;
69956;SDS011;57283;54.816;9.482;2022-10-14T06:36:22;17.73;;;7.77;;
69956;SDS011;57283;54.816;9.482;2022-10-14T06:38:50;19.80;;;8.55;;
69956;SDS011;57283;54.816;9.482;2022-10-14T06:41:17;16.85;;;7.47;;
69956;SDS011;57283;54.816;9.482;2022-10-14T06:43:45;18.13;;;7.13;;
69956;SDS011;57283;54.816;9.482;2022-10-14T06:46:13;18.45;;;7.07;;
69956;SDS011;57283;54.816;9.482;2022-10-14T06:48:41;17.17;;;7.53;;
69956;SDS011;57283;54.816;9.482;2022-10-14T06:51:15;16.35;;;7.32;;
69956;SDS011;57283;54.816;9.482;2022-10-14T06:53:43;18.98;;;6.93;;
69956;SDS011;57283;54.816;9.482;2022-10-14T06:56:10;19.08;;;6.80;;
69956;SDS011;57283;54.816;9.482;2022-10-14T06:58:38;18.35;;;6.72;;
69956;SDS011;57283;54.816;9.482;2022-10-14T07:01:06;22.73;;;8.00;;
69956;SDS011;57283;54.816;9.482;2022-10-14T07:03:36;27.50;;;7.38;;
69956;SDS011;57283;54.816;9.482;2022-10-14T07:06:05;29.45;;;7.82;;
69956;SDS011;57283;54.816;9.482;2022-10-14T07:08:33;42.58;;;7.05;;
69956;SDS011;57283;54.816;9.482;2022-10-14T07:11:00;18.10;;;6.95;;
69956;SDS011;57283;54.816;9.482;2022-10-14T07:13:28;20.30;;;6.10;;
69956;SDS011;57283;54.816;9.482;2022-10-14T07:15:55;24.80;;;6.97;;
69956;SDS011;57283;54.816;9.482;2022-10-14T07:18:23;30.00;;;6.82;;
69956;SDS011;57283;54.816;9.482;2022-10-14T07:20:52;16.92;;;6.45;;
69956;SDS011;57283;54.816;9.482;2022-10-14T07:23:19;32.25;;;7.22;;
69956;SDS011;57283;54.816;9.482;2022-10-14T07:25:47;29.20;;;7.33;;
69956;SDS011;57283;54.816;9.482;2022-10-14T07:28:14;28.98;;;6.20;;
69956;SDS011;57283;54.816;9.482;2022-10-14T07:30:42;29.63;;;6.45;;
69956;SDS011;57283;54.816;9.482;2022-10-14T07:33:09;35.88;;;6.30;;
69956;SDS011;57283;54.816;9.482;2022-10-14T07:35:37;34.75;;;7.00;;
69956;SDS011;57283;54.816;9.482;2022-10-14T07:38:06;32.30;;;6.57;;
69956;SDS011;57283;54.816;9.482;2022-10-14T07:40:33;35.85;;;5.97;;
69956;SDS011;57283;54.816;9.482;2022-10-14T07:43:01;59.42;;;6.97;;
69956;SDS011;57283;54.816;9.482;2022-10-14T07:45:29;30.55;;;6.75;;
69956;SDS011;57283;54.816;9.482;2022-10-14T07:48:00;18.75;;;6.50;;
69956;SDS011;57283;54.816;9.482;2022-10-14T07:50:28;16.53;;;6.17;;
69956;SDS011;57283;54.816;9.482;2022-10-14T07:52:55;15.10;;;6.85;;
69956;SDS011;57283;54.816;9.482;2022-10-14T07:55:28;14.35;;;6.72;;
69956;SDS011;57283;54.816;9.482;2022-10-14T07:57:55;16.10;;;6.80;;
69956;SDS011;57283;54.816;9.482;2022-10-14T08:00:23;17.92;;;6.72;;
69956;SDS011;57283;54.816;9.482;2022-10-14T08:02:51;15.80;;;6.83;;
69956;SDS011;57283;54.816;9.482;2022-10-14T08:05:19;16.45;;;6.70;;
69956;SDS011;57283;54.816;9.482;2022-10-14T08:08:05;16.33;;;6.50;;
69956;SDS011;57283;54.816;9.482;2022-10-14T08:10:34;16.85;;;7.28;;
69956;SDS011;57283;54.816;9.482;2022-10-14T08:13:02;19.02;;;7.22;;
69956;SDS011;57283;54.816;9.482;2022-10-14T08:15:31;19.03;;;7.17;;
69956;SDS011;57283;54.816;9.482;2022-10-14T08:17:59;18.83;;;7.28;;
69956;SDS011;57283;54.816;9.482;2022-10-14T08:20:26;17.58;;;8.32;;
69956;SDS011;57283;54.816;9.482;2022-10-14T08:22:54;19.60;;;7.63;;
69956;SDS011;57283;54.816;9.482;2022-10-14T08:25:21;19.05;;;7.72;;
69956;SDS011;57283;54.816;9.482;2022-10-14T08:27:50;25.27;;;8.53;;
69956;SDS011;57283;54.816;9.482;2022-10-14T08:30:19;20.95;;;8.38;;
69956;SDS011;57283;54.816;9.482;2022-10-14T08:32:47;21.55;;;8.23;;
69956;SDS011;57283;54.816;9.482;2022-10-14T08:35:14;21.13;;;8.35;;
69956;SDS011;57283;54.816;9.482;2022-10-14T08:37:42;19.33;;;7.55;;
69956;SDS011;57283;54.816;9.482;2022-10-14T08:40:10;21.63;;;8.70;;
69956;SDS011;57283;54.816;9.482;2022-10-14T08:42:41;20.05;;;8.20;;
69956;SDS011;57283;54.816;9.482;2022-10-14T08:45:17;20.90;;;8.27;;
69956;SDS011;57283;54.816;9.482;2022-10-14T08:47:45;16.85;;;7.63;;
69956;SDS011;57283;54.816;9.482;2022-10-14T08:50:19;17.02;;;7.93;;
69956;SDS011;57283;54.816;9.482;2022-10-14T08:52:49;19.30;;;6.90;;
69956;SDS011;57283;54.816;9.482;2022-10-14T08:55:22;16.98;;;7.53;;
69956;SDS011;57283;54.816;9.482;2022-10-14T08:57:54;16.67;;;7.50;;
69956;SDS011;57283;54.816;9.482;2022-10-14T09:00:24;19.58;;;8.15;;
69956;SDS011;57283;54.816;9.482;2022-10-14T09:02:52;16.30;;;7.07;;
69956;SDS011;57283;54.816;9.482;2022-10-14T09:05:20;15.23;;;7.00;;
69956;SDS011;57283;54.816;9.482;2022-10-14T09:07:48;15.05;;;6.97;;
69956;SDS011;57283;54.816;9.482;2022-10-14T09:10:24;15.93;;;6.90;;
69956;SDS011;57283;54.816;9.482;2022-10-14T09:12:53;17.05;;;7.00;;
69956;SDS011;57283;54.816;9.482;2022-10-14T09:15:24;14.07;;;6.82;;
69956;SDS011;57283;54.816;9.482;2022-10-14T09:17:58;15.00;;;6.53;;
69956;SDS011;57283;54.816;9.482;2022-10-14T09:20:27;14.70;;;6.47;;
69956;SDS011;57283;54.816;9.482;2022-10-14T09:23:07;14.65;;;6.05;;
69956;SDS011;57283;54.816;9.482;2022-10-14T09:25:37;14.48;;;6.72;;
69956;SDS011;57283;54.816;9.482;2022-10-14T09:28:07;14.52;;;6.78;;
69956;SDS011;57283;54.816;9.482;2022-10-14T09:30:35;18.70;;;7.70;;
69956;SDS011;57283;54.816;9.482;2022-10-14T09:33:05;16.10;;;6.65;;
69956;SDS011;57283;54.816;9.482;2022-10-14T09:35:36;14.85;;;6.80;;
69956;SDS011;57283;54.816;9.482;2022-10-14T09:38:05;14.15;;;7.22;;
69956;SDS011;57283;54.816;9.482;2022-10-14T09:40:33;14.18;;;6.60;;
69956;SDS011;57283;54.816;9.482;2022-10-14T09:43:01;12.37;;;6.47;;
69956;SDS011;57283;54.816;9.482;2022-10-14T09:45:45;11.45;;;6.72;;
69956;SDS011;57283;54.816;9.482;2022-10-14T09:48:15;11.93;;;7.05;;
69956;SDS011;57283;54.816;9.482;2022-10-14T09:50:47;12.88;;;6.75;;
69956;SDS011;57283;54.816;9.482;2022-10-14T09:53:17;12.35;;;6.20;;
69956;SDS011;57283;54.816;9.482;2022-10-14T09:55:45;12.70;;;6.83;;
69956;SDS011;57283;54.816;9.482;2022-10-14T09:58:15;14.63;;;7.25;;
69956;SDS011;57283;54.816;9.482;2022-10-14T10:00:43;12.90;;;7.10;;
69956;SDS011;57283;54.816;9.482;2022-10-14T10:03:24;11.98;;;6.65;;
69956;SDS011;57283;54.816;9.482;2022-10-14T10:05:59;10.65;;;6.25;;
69956;SDS011;57283;54.816;9.482;2022-10-14T10:08:27;11.87;;;6.17;;
69956;SDS011;57283;54.816;9.482;2022-10-14T10:10:58;11.93;;;6.63;;
69956;SDS011;57283;54.816;9.482;2022-10-14T10:13:36;12.27;;;6.72;;
69956;SDS011;57283;54.816;9.482;2022-10-14T10:16:06;13.93;;;7.57;;
69956;SDS011;57283;54.816;9.482;2022-10-14T10:18:36;11.40;;;6.00;;
69956;SDS011;57283;54.816;9.482;2022-10-14T10:21:05;11.00;;;6.13;;
69956;SDS011;57283;54.816;9.482;2022-10-14T10:23:34;13.20;;;7.10;;
69956;SDS011;57283;54.816;9.482;2022-10-14T10:28:53;11.82;;;5.68;;
69956;SDS011;57283;54.816;9.482;2022-10-14T10:31:30;11.40;;;6.35;;
69956;SDS011;57283;54.816;9.482;2022-10-14T10:34:03;11.83;;;6.17;;
69956;SDS011;57283;54.816;9.482;2022-10-14T10:36:33;15.00;;;6.43;;
69956;SDS011;57283;54.816;9.482;2022-10-14T10:39:04;11.60;;;6.07;;
69956;SDS011;57283;54.816;9.482;2022-10-14T10:41:48;11.57;;;6.10;;
69956;SDS011;57283;54.816;9.482;2022-10-14T10:44:23;11.18;;;6.13;;
69956;SDS011;57283;54.816;9.482;2022-10-14T10:46:59;11.90;;;5.40;;
69956;SDS011;57283;54.816;9.482;2022-10-14T10:49:42;12.73;;;6.13;;
69956;SDS011;57283;54.816;9.482;2022-10-14T10:52:15;13.18;;;5.72;;
69956;SDS011;57283;54.816;9.482;2022-10-14T10:54:48;11.98;;;5.70;;
69956;SDS011;57283;54.816;9.482;2022-10-14T10:57:23;14.32;;;5.85;;
69956;SDS011;57283;54.816;9.482;2022-10-14T10:59:55;12.20;;;5.73;;
69956;SDS011;57283;54.816;9.482;2022-10-14T11:05:15;13.85;;;6.35;;
69956;SDS011;57283;54.816;9.482;2022-10-14T11:07:48;13.38;;;6.07;;
69956;SDS011;57283;54.816;9.482;2022-10-14T11:10:32;13.30;;;5.93;;
69956;SDS011;57283;54.816;9.482;2022-10-14T11:13:19;12.77;;;6.17;;
69956;SDS011;57283;54.816;9.482;2022-10-14T11:15:49;13.43;;;6.05;;
69956;SDS011;57283;54.816;9.482;2022-10-14T11:18:21;13.35;;;5.93;;
69956;SDS011;57283;54.816;9.482;2022-10-14T11:20:58;12.63;;;6.05;;
69956;SDS011;57283;54.816;9.482;2022-10-14T11:23:33;12.60;;;5.68;;
69956;SDS011;57283;54.816;9.482;2022-10-14T11:26:06;11.13;;;5.37;;
69956;SDS011;57283;54.816;9.482;2022-10-14T11:28:36;12.07;;;5.57;;
69956;SDS011;57283;54.816;9.482;2022-10-14T11:31:10;12.02;;;6.40;;
69956;SDS011;57283;54.816;9.482;2022-10-14T11:33:44;9.90;;;6.07;;
69956;SDS011;57283;54.816;9.482;2022-10-14T11:36:20;11.27;;;6.28;;
69956;SDS011;57283;54.816;9.482;2022-10-14T11:41:39;10.90;;;6.43;;
69956;SDS011;57283;54.816;9.482;2022-10-14T11:44:13;11.05;;;6.57;;
69956;SDS011;57283;54.816;9.482;2022-10-14T11:46:42;11.60;;;5.95;;
69956;SDS011;57283;54.816;9.482;2022-10-14T11:49:12;9.20;;;5.97;;
69956;SDS011;57283;54.816;9.482;2022-10-14T11:51:46;9.73;;;5.83;;
69956;SDS011;57283;54.816;9.482;2022-10-14T11:54:16;9.07;;;5.70;;
69956;SDS011;57283;54.816;9.482;2022-10-14T11:56:45;9.48;;;5.82;;
69956;SDS011;57283;54.816;9.482;2022-10-14T11:59:24;10.10;;;6.10;;
69956;SDS011;57283;54.816;9.482;2022-10-14T12:01:56;9.95;;;6.90;;
69956;SDS011;57283;54.816;9.482;2022-10-14T12:04:26;9.70;;;5.57;;
69956;SDS011;57283;54.816;9.482;2022-10-14T12:06:58;9.02;;;5.50;;
69956;SDS011;57283;54.816;9.482;2022-10-14T12:09:30;10.35;;;6.35;;
69956;SDS011;57283;54.816;9.482;2022-10-14T12:12:07;13.07;;;7.18;;
69956;SDS011;57283;54.816;9.482;2022-10-14T12:14:37;10.98;;;6.78;;
69956;SDS011;57283;54.816;9.482;2022-10-14T12:17:08;8.97;;;5.60;;
69956;SDS011;57283;54.816;9.482;2022-10-14T12:19:42;9.40;;;5.85;;
69956;SDS011;57283;54.816;9.482;2022-10-14T12:22:14;11.15;;;6.85;;
69956;SDS011;57283;54.816;9.482;2022-10-14T12:24:44;13.88;;;7.88;;
69956;SDS011;57283;54.816;9.482;2022-10-14T12:27:13;12.27;;;7.70;;
69956;SDS011;57283;54.816;9.482;2022-10-14T12:29:42;12.73;;;7.33;;
69956;SDS011;57283;54.816;9.482;2022-10-14T12:32:17;12.50;;;7.43;;
69956;SDS011;57283;54.816;9.482;2022-10-14T12:34:46;12.10;;;6.75;;
69956;SDS011;57283;54.816;9.482;2022-10-14T12:40:26;12.27;;;6.65;;
69956;SDS011;57283;54.816;9.482;2022-10-14T12:42:56;9.47;;;5.60;;
69956;SDS011;57283;54.816;9.482;2022-10-14T12:45:25;10.70;;;6.22;;
69956;SDS011;57283;54.816;9.482;2022-10-14T12:47:59;9.57;;;5.43;;
69956;SDS011;57283;54.816;9.482;2022-10-14T12:50:28;9.35;;;5.05;;
69956;SDS011;57283;54.816;9.482;2022-10-14T12:52:56;9.18;;;4.65;;
69956;SDS011;57283;54.816;9.482;2022-10-14T12:55:27;8.27;;;4.33;;
69956;SDS011;57283;54.816;9.482;2022-10-14T12:57:56;9.45;;;5.20;;
69956;SDS011;57283;54.816;9.482;2022-10-14T13:00:29;9.65;;;5.10;;
69956;SDS011;57283;54.816;9.482;2022-10-14T13:02:58;11.50;;;4.57;;
69956;SDS011;57283;54.816;9.482;2022-10-14T13:05:28;8.82;;;4.40;;
69956;SDS011;57283;54.816;9.482;2022-10-14T13:08:10;7.67;;;3.90;;
69956;SDS011;57283;54.816;9.482;2022-10-14T13:10:45;11.63;;;4.85;;
69956;SDS011;57283;54.816;9.482;2022-10-14T13:15:59;8.68;;;4.32;;
69956;SDS011;57283;54.816;9.482;2022-10-14T13:18:34;8.65;;;4.82;;
69956;SDS011;57283;54.816;9.482;2022-10-14T13:21:02;8.10;;;4.10;;
69956;SDS011;57283;54.816;9.482;2022-10-14T13:23:34;8.45;;;4.60;;
69956;SDS011;57283;54.816;9.482;2022-10-14T13:26:12;8.15;;;4.50;;
69956;SDS011;57283;54.816;9.482;2022-10-14T13:28:47;8.70;;;4.10;;
69956;SDS011;57283;54.816;9.482;2022-10-14T13:31:18;10.75;;;4.45;;
69956;SDS011;57283;54.816;9.482;2022-10-14T13:33:48;7.63;;;4.33;;
69956;SDS011;57283;54.816;9.482;2022-10-14T13:36:17;6.65;;;3.55;;
69956;SDS011;57283;54.816;9.482;2022-10-14T13:38:50;5.60;;;2.42;;
69956;SDS011;57283;54.816;9.482;2022-10-14T13:41:21;4.85;;;2.10;;
69956;SDS011;57283;54.816;9.482;2022-10-14T13:43:56;7.93;;;2.90;;
69956;SDS011;57283;54.816;9.482;2022-10-14T13:46:26;5.00;;;2.40;;
69956;SDS011;57283;54.816;9.482;2022-10-14T13:48:54;6.25;;;2.30;;
69956;SDS011;57283;54.816;9.482;2022-10-14T13:51:24;6.75;;;2.50;;
69956;SDS011;57283;54.816;9.482;2022-10-14T13:54:08;5.20;;;2.38;;
69956;SDS011;57283;54.816;9.482;2022-10-14T13:56:41;6.35;;;1.95;;
69956;SDS011;57283;54.816;9.482;2022-10-14T13:59:16;7.13;;;2.37;;
69956;SDS011;57283;54.816;9.482;2022-10-14T14:02:08;6.05;;;2.60;;
69956;SDS011;57283;54.816;9.482;2022-10-14T14:04:38;5.22;;;2.60;;
69956;SDS011;57283;54.816;9.482;2022-10-14T14:07:05;5.88;;;2.20;;
69956;SDS011;57283;54.816;9.482;2022-10-14T14:09:54;6.90;;;2.78;;
69956;SDS011;57283;54.816;9.482;2022-10-14T14:12:26;5.97;;;2.50;;
69956;SDS011;57283;54.816;9.482;2022-10-14T14:14:54;6.00;;;2.20;;
69956;SDS011;57283;54.816;9.482;2022-10-14T14:17:24;6.03;;;2.22;;
69956;SDS011;57283;54.816;9.482;2022-10-14T14:19:53;6.10;;;2.22;;
69956;SDS011;57283;54.816;9.482;2022-10-14T14:22:21;6.97;;;2.78;;
69956;SDS011;57283;54.816;9.482;2022-10-14T14:24:50;5.97;;;2.47;;
69956;SDS011;57283;54.816;9.482;2022-10-14T14:27:18;6.22;;;2.50;;
69956;SDS011;57283;54.816;9.482;2022-10-14T14:29:48;6.43;;;2.72;;
69956;SDS011;57283;54.816;9.482;2022-10-14T14:32:17;5.75;;;2.15;;
69956;SDS011;57283;54.816;9.482;2022-10-14T14:34:46;7.25;;;2.70;;
69956;SDS011;57283;54.816;9.482;2022-10-14T14:37:18;7.63;;;2.80;;
69956;SDS011;57283;54.816;9.482;2022-10-14T14:40:13;7.32;;;2.70;;
69956;SDS011;57283;54.816;9.482;2022-10-14T14:42:41;6.82;;;2.90;;
69956;SDS011;57283;54.816;9.482;2022-10-14T14:45:12;8.80;;;3.30;;
69956;SDS011;57283;54.816;9.482;2022-10-14T14:47:42;7.15;;;3.38;;
69956;SDS011;57283;54.816;9.482;2022-10-14T14:50:11;8.50;;;3.80;;
69956;SDS011;57283;54.816;9.482;2022-10-14T14:52:57;9.30;;;3.83;;
69956;SDS011;57283;54.816;9.482;2022-10-14T14:55:37;11.50;;;5.65;;
69956;SDS011;57283;54.816;9.482;2022-10-14T14:58:05;8.95;;;4.68;;
69956;SDS011;57283;54.816;9.482;2022-10-14T15:00:43;10.70;;;4.70;;
69956;SDS011;57283;54.816;9.482;2022-10-14T15:03:11;8.43;;;4.90;;
69956;SDS011;57283;54.816;9.482;2022-10-14T15:05:39;8.27;;;4.90;;
69956;SDS011;57283;54.816;9.482;2022-10-14T15:08:12;9.38;;;4.72;;
69956;SDS011;57283;54.816;9.482;2022-10-14T15:10:43;10.02;;;4.95;;
69956;SDS011;57283;54.816;9.482;2022-10-14T15:13:23;9.73;;;4.57;;
69956;SDS011;57283;54.816;9.482;2022-10-14T15:15:52;10.63;;;4.87;;
69956;SDS011;57283;54.816;9.482;2022-10-14T15:18:21;8.65;;;4.82;;
69956;SDS011;57283;54.816;9.482;2022-10-14T15:20:50;9.57;;;4.90;;
69956;SDS011;57283;54.816;9.482;2022-10-14T15:23:35;9.60;;;4.88;;
69956;SDS011;57283;54.816;9.482;2022-10-14T15:26:03;9.13;;;4.75;;
69956;SDS011;57283;54.816;9.482;2022-10-14T15:28:30;9.97;;;5.33;;
69956;SDS011;57283;54.816;9.482;2022-10-14T15:31:00;9.10;;;5.25;;
69956;SDS011;57283;54.816;9.482;2022-10-14T15:33:31;10.30;;;5.35;;
69956;SDS011;57283;54.816;9.482;2022-10-14T15:35:59;11.32;;;5.40;;
69956;SDS011;57283;54.816;9.482;2022-10-14T15:38:28;10.43;;;5.70;;
69956;SDS011;57283;54.816;9.482;2022-10-14T15:40:56;10.17;;;5.23;;
69956;SDS011;57283;54.816;9.482;2022-10-14T15:43:24;9.98;;;5.80;;
69956;SDS011;57283;54.816;9.482;2022-10-14T15:45:53;13.68;;;6.43;;
69956;SDS011;57283;54.816;9.482;2022-10-14T15:48:36;11.18;;;5.65;;
69956;SDS011;57283;54.816;9.482;2022-10-14T15:51:03;10.75;;;5.38;;
69956;SDS011;57283;54.816;9.482;2022-10-14T15:53:31;9.53;;;5.60;;
69956;SDS011;57283;54.816;9.482;2022-10-14T15:55:59;10.65;;;5.65;;
69956;SDS011;57283;54.816;9.482;2022-10-14T15:58:26;11.20;;;5.93;;
69956;SDS011;57283;54.816;9.482;2022-10-14T16:00:54;9.93;;;5.95;;
69956;SDS011;57283;54.816;9.482;2022-10-14T16:03:21;11.60;;;6.53;;
69956;SDS011;57283;54.816;9.482;2022-10-14T16:05:50;9.43;;;5.77;;
69956;SDS011;57283;54.816;9.482;2022-10-14T16:08:18;13.25;;;6.63;;
69956;SDS011;57283;54.816;9.482;2022-10-14T16:10:46;12.95;;;6.32;;
69956;SDS011;57283;54.816;9.482;2022-10-14T16:13:13;10.88;;;6.43;;
69956;SDS011;57283;54.816;9.482;2022-10-14T16:15:43;11.88;;;6.68;;
69956;SDS011;57283;54.816;9.482;2022-10-14T16:18:12;13.40;;;7.27;;
69956;SDS011;57283;54.816;9.482;2022-10-14T16:20:39;15.38;;;7.93;;
69956;SDS011;57283;54.816;9.482;2022-10-14T16:23:10;19.50;;;8.52;;
69956;SDS011;57283;54.816;9.482;2022-10-14T16:25:41;17.05;;;7.82;;
69956;SDS011;57283;54.816;9.482;2022-10-14T16:28:10;14.57;;;7.90;;
69956;SDS011;57283;54.816;9.482;2022-10-14T16:30:38;15.37;;;7.80;;
69956;SDS011;57283;54.816;9.482;2022-10-14T16:33:06;15.65;;;8.27;;
69956;SDS011;57283;54.816;9.482;2022-10-14T16:35:34;19.45;;;9.15;;
69956;SDS011;57283;54.816;9.482;2022-10-14T16:38:01;16.48;;;8.52;;
69956;SDS011;57283;54.816;9.482;2022-10-14T16:40:30;17.05;;;8.48;;
69956;SDS011;57283;54.816;9.482;2022-10-14T16:43:02;17.83;;;8.57;;
69956;SDS011;57283;54.816;9.482;2022-10-14T16:45:29;21.25;;;9.55;;
69956;SDS011;57283;54.816;9.482;2022-10-14T16:47:57;17.70;;;9.25;;
69956;SDS011;57283;54.816;9.482;2022-10-14T16:50:24;16.05;;;8.32;;
69956;SDS011;57283;54.816;9.482;2022-10-14T16:52:52;18.35;;;8.23;;
69956;SDS011;57283;54.816;9.482;2022-10-14T16:55:38;17.00;;;8.70;;
69956;SDS011;57283;54.816;9.482;2022-10-14T16:58:06;19.55;;;9.48;;
69956;SDS011;57283;54.816;9.482;2022-10-14T17:00:33;21.48;;;9.60;;
69956;SDS011;57283;54.816;9.482;2022-10-14T17:03:01;18.48;;;9.77;;
69956;SDS011;57283;54.816;9.482;2022-10-14T17:05:28;30.95;;;14.60;;
69956;SDS011;57283;54.816;9.482;2022-10-14T17:07:56;27.10;;;12.77;;
69956;SDS011;57283;54.816;9.482;2022-10-14T17:10:23;24.75;;;10.77;;
69956;SDS011;57283;54.816;9.482;2022-10-14T17:12:52;22.20;;;11.13;;
69956;SDS011;57283;54.816;9.482;2022-10-14T17:15:20;25.33;;;11.43;;
69956;SDS011;57283;54.816;9.482;2022-10-14T17:17:48;21.08;;;10.07;;
69956;SDS011;57283;54.816;9.482;2022-10-14T17:20:16;21.33;;;9.87;;
69956;SDS011;57283;54.816;9.482;2022-10-14T17:22:45;22.33;;;10.23;;
69956;SDS011;57283;54.816;9.482;2022-10-14T17:25:15;20.85;;;10.57;;
69956;SDS011;57283;54.816;9.482;2022-10-14T17:27:43;24.83;;;11.13;;
69956;SDS011;57283;54.816;9.482;2022-10-14T17:30:12;24.85;;;10.15;;
69956;SDS011;57283;54.816;9.482;2022-10-14T17:32:39;23.83;;;10.80;;
69956;SDS011;57283;54.816;9.482;2022-10-14T17:35:07;24.92;;;11.07;;
69956;SDS011;57283;54.816;9.482;2022-10-14T17:37:40;23.67;;;11.40;;
69956;SDS011;57283;54.816;9.482;2022-10-14T17:40:08;24.70;;;10.95;;
69956;SDS011;57283;54.816;9.482;2022-10-14T17:42:35;27.83;;;11.35;;
69956;SDS011;57283;54.816;9.482;2022-10-14T17:45:03;24.13;;;11.40;;
69956;SDS011;57283;54.816;9.482;2022-10-14T17:47:32;25.88;;;11.85;;
69956;SDS011;57283;54.816;9.482;2022-10-14T17:50:00;25.92;;;11.38;;
69956;SDS011;57283;54.816;9.482;2022-10-14T17:52:28;27.98;;;11.43;;
69956;SDS011;57283;54.816;9.482;2022-10-14T17:54:55;25.88;;;11.75;;
69956;SDS011;57283;54.816;9.482;2022-10-14T17:57:26;26.10;;;11.77;;
69956;SDS011;57283;54.816;9.482;2022-10-14T17:59:54;29.73;;;12.18;;
69956;SDS011;57283;54.816;9.482;2022-10-14T18:02:22;27.90;;;12.43;;
69956;SDS011;57283;54.816;9.482;2022-10-14T18:04:51;29.48;;;12.68;;
69956;SDS011;57283;54.816;9.482;2022-10-14T18:07:18;29.60;;;11.90;;